createdAt,value
2018-06-15T00:00:20.226Z,64.20
2018-06-15T00:02:58.442Z,64.20
2018-06-15T00:05:28.529Z,64.00
2018-06-15T00:07:57.681Z,63.90
2018-06-15T00:10:27.396Z,63.80
2018-06-15T00:12:56.879Z,63.60
2018-06-15T00:15:26.698Z,63.70
2018-06-15T00:17:56.180Z,64.00
2018-06-15T00:20:26.113Z,64.20
2018-06-15T00:22:55.166Z,64.20
2018-06-15T00:25:30.846Z,64.30
2018-06-15T00:27:59.723Z,65.30
2018-06-15T00:30:29.313Z,64.60
2018-06-15T00:33:00.393Z,64.70
2018-06-15T00:35:30.303Z,65.10
2018-06-15T00:37:59.797Z,66.00
2018-06-15T00:40:29.424Z,64.90
2018-06-15T00:42:58.230Z,64.70
2018-06-15T00:45:27.896Z,64.40
2018-06-15T00:47:57.639Z,64.40
2018-06-15T00:50:26.633Z,64.20
2018-06-15T00:52:55.640Z,64.00
2018-06-15T00:55:25.940Z,63.80
2018-06-15T00:57:54.848Z,63.90
2018-06-15T01:00:25.127Z,64.00
2018-06-15T01:02:55.687Z,63.80
2018-06-15T01:05:24.501Z,63.60
2018-06-15T01:07:54.316Z,63.50
2018-06-15T01:10:24.100Z,63.40
2018-06-15T01:12:53.537Z,63.80
2018-06-15T01:15:22.988Z,63.60
2018-06-15T01:17:51.698Z,63.50
2018-06-15T01:20:20.677Z,63.40
2018-06-15T01:22:49.342Z,63.30
2018-06-15T01:25:22.920Z,63.20
2018-06-15T01:27:52.238Z,63.20
2018-06-15T01:30:21.064Z,63.60
2018-06-15T01:32:50.161Z,63.30
2018-06-15T01:35:19.945Z,63.80
2018-06-15T01:37:49.807Z,64.00
2018-06-15T01:40:19.272Z,64.10
2018-06-15T01:42:48.228Z,64.40
2018-06-15T01:45:18.230Z,64.00
2018-06-15T01:47:47.482Z,64.40
2018-06-15T01:50:16.312Z,64.10
2018-06-15T01:52:46.116Z,64.00
2018-06-15T01:55:15.924Z,64.10
2018-06-15T01:57:44.899Z,64.10
2018-06-15T02:00:14.590Z,63.90
2018-06-15T02:02:44.712Z,63.80
2018-06-15T02:05:15.338Z,63.80
2018-06-15T02:07:44.731Z,63.80
2018-06-15T02:10:14.784Z,63.60
2018-06-15T02:12:44.564Z,63.80
2018-06-15T02:15:13.880Z,63.50
2018-06-15T02:17:43.801Z,63.20
2018-06-15T02:20:13.461Z,63.00
2018-06-15T02:22:42.951Z,63.50
2018-06-15T02:25:11.975Z,63.50
2018-06-15T02:27:41.598Z,63.70
2018-06-15T02:30:11.002Z,63.80
2018-06-15T02:32:39.737Z,63.90
2018-06-15T02:35:09.072Z,63.60
2018-06-15T02:37:37.933Z,63.70
2018-06-15T02:40:07.846Z,63.80
2018-06-15T02:42:36.748Z,63.70
2018-06-15T02:45:05.647Z,63.60
2018-06-15T02:47:34.738Z,63.50
2018-06-15T02:50:04.466Z,63.40
2018-06-15T02:52:35.213Z,63.40
2018-06-15T02:55:04.999Z,63.50
2018-06-15T02:57:34.060Z,63.80
2018-06-15T03:00:04.172Z,64.20
2018-06-15T03:02:32.911Z,64.10
2018-06-15T03:05:01.710Z,64.20
2018-06-15T03:07:30.655Z,64.40
2018-06-15T03:09:59.662Z,63.90
2018-06-15T03:12:28.740Z,64.40
2018-06-15T03:14:58.554Z,64.50
2018-06-15T03:17:28.386Z,64.40
2018-06-15T03:19:57.317Z,64.70
2018-06-15T03:22:26.315Z,64.30
2018-06-15T03:24:56.341Z,64.60
2018-06-15T03:29:53.570Z,64.30
2018-06-15T03:32:22.860Z,63.10
2018-06-15T03:34:52.569Z,62.90
2018-06-15T03:37:22.050Z,63.20
2018-06-15T03:39:51.082Z,63.10
2018-06-15T03:42:20.309Z,62.60
2018-06-15T03:44:49.857Z,62.20
2018-06-15T03:47:18.874Z,62.10
2018-06-15T03:49:48.206Z,61.30
2018-06-15T03:52:18.013Z,61.00
2018-06-15T03:54:46.733Z,61.30
2018-06-15T03:57:15.740Z,60.50
2018-06-15T03:59:46.297Z,60.50
2018-06-15T04:02:16.038Z,60.30
2018-06-15T04:04:45.976Z,60.00
2018-06-15T04:07:14.784Z,60.10
2018-06-15T04:09:43.565Z,59.80
2018-06-15T04:12:19.125Z,60.10
2018-06-15T04:17:16.229Z,59.80
2018-06-15T04:19:44.935Z,59.70
2018-06-15T04:22:14.259Z,59.50
2018-06-15T04:24:43.636Z,59.70
2018-06-15T04:27:12.734Z,59.60
2018-06-15T04:29:42.711Z,59.40
2018-06-15T04:32:12.920Z,59.30
2018-06-15T04:34:41.702Z,59.50
2018-06-15T04:37:11.959Z,59.30
2018-06-15T04:39:40.800Z,59.10
2018-06-15T04:42:10.376Z,59.10
2018-06-15T04:44:45.054Z,58.90
2018-06-15T04:47:15.538Z,59.30
2018-06-15T04:49:46.053Z,59.10
2018-06-15T04:52:16.192Z,59.30
2018-06-15T04:54:46.085Z,58.70
2018-06-15T04:57:15.786Z,58.70
2018-06-15T04:59:45.347Z,58.30
2018-06-15T05:02:15.224Z,58.30
2018-06-15T05:04:45.255Z,58.40
2018-06-15T05:07:14.989Z,58.60
2018-06-15T05:09:43.839Z,58.50
2018-06-15T05:12:14.864Z,58.20
2018-06-15T05:14:44.367Z,59.10
2018-06-15T05:17:14.964Z,58.20
2018-06-15T05:19:45.045Z,58.00
2018-06-15T05:22:14.429Z,57.90
2018-06-15T05:24:44.725Z,57.40
2018-06-15T05:27:13.637Z,57.90
2018-06-15T05:29:43.982Z,58.10
2018-06-15T05:32:14.054Z,57.80
2018-06-15T05:34:42.730Z,57.60
2018-06-15T05:37:12.726Z,57.90
2018-06-15T05:39:42.317Z,57.80
2018-06-15T05:42:11.823Z,57.90
2018-06-15T05:44:41.658Z,57.70
2018-06-15T05:47:10.728Z,57.80
2018-06-15T05:49:39.457Z,58.00
2018-06-15T05:52:09.424Z,57.90
2018-06-15T05:54:39.121Z,57.60
2018-06-15T05:57:07.836Z,57.60
2018-06-15T05:59:41.187Z,56.90
2018-06-15T06:02:10.994Z,57.10
2018-06-15T06:04:41.065Z,57.20
2018-06-15T06:07:12.013Z,57.30
2018-06-15T06:09:41.788Z,56.80
2018-06-15T06:12:10.719Z,56.50
2018-06-15T06:14:40.877Z,56.60
2018-06-15T06:17:09.961Z,56.60
2018-06-15T06:19:38.608Z,56.90
2018-06-15T06:22:07.406Z,57.00
2018-06-15T06:24:37.257Z,57.00
2018-06-15T06:27:07.418Z,56.90
2018-06-15T06:29:37.081Z,57.10
2018-06-15T06:32:06.029Z,57.20
2018-06-15T06:34:35.509Z,57.20
2018-06-15T06:37:05.348Z,57.30
2018-06-15T06:39:35.306Z,57.20
2018-06-15T06:42:04.805Z,57.20
2018-06-15T06:44:33.981Z,57.50
2018-06-15T06:47:04.100Z,57.60
2018-06-15T06:49:34.681Z,57.40
2018-06-15T06:52:04.341Z,57.60
2018-06-15T06:54:33.205Z,57.80
2018-06-15T06:57:02.591Z,57.60
2018-06-15T06:59:31.733Z,57.70
2018-06-15T07:02:00.697Z,57.30
2018-06-15T07:04:30.472Z,57.20
2018-06-15T07:07:00.204Z,57.20
2018-06-15T07:09:30.021Z,56.90
2018-06-15T07:11:58.844Z,57.20
2018-06-15T07:14:28.685Z,57.40
2018-06-15T07:16:58.261Z,58.30
2018-06-15T07:19:27.135Z,57.50
2018-06-15T07:21:56.971Z,57.70
2018-06-15T07:24:27.001Z,57.80
2018-06-15T07:26:56.392Z,57.80
2018-06-15T07:29:26.118Z,57.90
2018-06-15T07:31:55.662Z,58.10
2018-06-15T07:34:25.018Z,57.90
2018-06-15T07:36:53.777Z,57.90
2018-06-15T07:39:23.798Z,58.00
2018-06-15T07:41:52.800Z,58.00
2018-06-15T07:44:22.101Z,58.40
2018-06-15T07:46:51.070Z,58.40
2018-06-15T07:49:20.152Z,58.30
2018-06-15T07:51:48.980Z,58.30
2018-06-15T07:54:18.730Z,58.40
2018-06-15T07:56:47.593Z,58.40
2018-06-15T07:59:17.101Z,58.60
2018-06-15T08:01:47.011Z,58.60
2018-06-15T08:04:21.254Z,58.60
2018-06-15T08:06:50.869Z,58.40
2018-06-15T08:09:20.586Z,58.40
2018-06-15T08:14:18.705Z,59.20
2018-06-15T08:16:47.454Z,58.60
2018-06-15T08:19:17.001Z,58.50
2018-06-15T08:21:46.023Z,58.50
2018-06-15T08:24:19.165Z,58.50
2018-06-15T08:29:23.099Z,58.30
2018-06-15T08:34:20.495Z,58.10
2018-06-15T08:36:49.821Z,57.80
2018-06-15T08:39:18.822Z,57.50
2018-06-15T08:41:47.744Z,57.40
2018-06-15T08:44:17.309Z,56.40
2018-06-15T08:46:47.398Z,56.30
2018-06-15T08:51:45.830Z,54.00
2018-06-15T08:54:15.589Z,54.00
2018-06-15T08:56:45.620Z,53.50
2018-06-15T09:01:44.152Z,52.70
2018-06-15T09:04:13.710Z,53.30
2018-06-15T09:06:43.602Z,53.00
2018-06-15T09:09:14.302Z,53.60
2018-06-15T09:11:43.992Z,53.30
2018-06-15T09:14:14.048Z,53.00
2018-06-15T09:16:44.443Z,53.00
2018-06-15T09:19:13.202Z,52.90
2018-06-15T09:21:42.012Z,52.80
2018-06-15T09:24:11.799Z,52.70
2018-06-15T09:26:41.309Z,53.20
2018-06-15T09:29:10.729Z,53.20
2018-06-15T09:34:09.233Z,53.20
2018-06-15T09:36:38.727Z,52.40
2018-06-15T09:39:09.086Z,52.90
2018-06-15T09:41:38.805Z,52.70
2018-06-15T09:44:07.834Z,53.10
2018-06-15T09:46:41.089Z,52.80
2018-06-15T09:49:09.956Z,51.90
2018-06-15T09:51:38.952Z,51.90
2018-06-15T09:54:07.998Z,51.00
2018-06-15T09:56:37.356Z,50.70
2018-06-15T09:59:07.326Z,51.00
2018-06-15T10:01:37.314Z,49.80
2018-06-15T10:04:06.490Z,48.70
2018-06-15T10:06:36.924Z,48.80
2018-06-15T10:09:07.075Z,49.10
2018-06-15T10:11:38.100Z,49.10
2018-06-15T10:14:06.917Z,48.10
2018-06-15T10:16:36.422Z,48.10
2018-06-15T10:19:05.683Z,48.40
2018-06-15T10:21:36.004Z,47.30
2018-06-15T10:24:05.827Z,47.00
2018-06-15T10:26:34.925Z,46.60
2018-06-15T10:29:09.077Z,46.40
2018-06-15T10:31:37.880Z,46.50
2018-06-15T10:34:07.556Z,46.40
2018-06-15T10:36:36.678Z,46.80
2018-06-15T10:39:07.650Z,46.20
2018-06-15T10:41:37.393Z,46.50
2018-06-15T10:44:06.208Z,45.50
2018-06-15T10:46:36.405Z,45.70
2018-06-15T10:49:06.094Z,45.40
2018-06-15T10:51:35.634Z,46.40
2018-06-15T10:54:04.925Z,46.70
2018-06-15T10:56:38.046Z,46.60
2018-06-15T10:59:06.990Z,45.50
2018-06-15T11:01:36.191Z,44.90
2018-06-15T11:04:05.790Z,44.90
2018-06-15T11:06:35.223Z,45.00
2018-06-15T11:09:07.123Z,44.70
2018-06-15T11:11:40.116Z,44.90
2018-06-15T11:14:09.370Z,44.60
2018-06-15T11:16:39.185Z,44.40
2018-06-15T11:19:08.157Z,44.20
2018-06-15T11:21:37.453Z,44.70
2018-06-15T11:24:06.890Z,45.00
2018-06-15T11:26:37.723Z,44.70
2018-06-15T11:29:07.064Z,44.50
2018-06-15T11:31:37.232Z,44.60
2018-06-15T11:34:06.837Z,44.10
2018-06-15T11:36:36.442Z,44.00
2018-06-15T11:39:08.837Z,44.30
2018-06-15T11:41:37.852Z,44.00
2018-06-15T11:44:11.514Z,44.10
2018-06-15T11:46:40.465Z,44.40
2018-06-15T11:49:09.907Z,44.00
2018-06-15T11:51:40.111Z,43.80
2018-06-15T11:56:38.159Z,44.00
2018-06-15T11:59:06.869Z,43.40
2018-06-15T12:01:36.563Z,43.40
2018-06-15T12:06:39.085Z,43.80
2018-06-15T12:11:37.943Z,44.20
2018-06-15T12:14:06.998Z,44.30
2018-06-15T12:16:36.151Z,44.00
2018-06-15T12:19:05.555Z,44.20
2018-06-15T12:21:34.386Z,43.90
2018-06-15T12:26:36.824Z,44.00
2018-06-15T12:29:05.708Z,44.00
2018-06-15T12:31:35.885Z,44.00
2018-06-15T12:34:06.366Z,44.20
2018-06-15T12:36:35.742Z,44.10
2018-06-15T12:39:06.504Z,44.70
2018-06-15T12:41:36.304Z,45.10
2018-06-15T12:44:05.145Z,45.10
2018-06-15T12:46:34.562Z,45.50
2018-06-15T12:49:08.899Z,45.70
2018-06-15T12:51:38.706Z,46.10
2018-06-15T12:54:09.900Z,46.50
2018-06-15T12:56:38.998Z,46.80
2018-06-15T12:59:08.917Z,47.10
2018-06-15T13:01:39.633Z,47.20
2018-06-15T13:04:08.619Z,47.60
2018-06-15T13:06:38.680Z,47.90
2018-06-15T13:09:09.137Z,48.20
2018-06-15T13:11:38.677Z,48.70
2018-06-15T13:14:08.569Z,48.80
2018-06-15T13:16:37.973Z,48.60
2018-06-15T13:19:06.891Z,48.60
2018-06-15T13:21:36.253Z,48.10
2018-06-15T13:24:05.543Z,48.10
2018-06-15T13:29:08.679Z,47.80
2018-06-15T13:31:37.690Z,48.10
2018-06-15T13:34:07.895Z,48.00
2018-06-15T13:36:37.376Z,48.00
2018-06-15T13:39:10.643Z,47.70
2018-06-15T13:41:40.465Z,47.10
2018-06-15T13:44:09.319Z,47.00
2018-06-15T13:46:38.666Z,47.40
2018-06-15T13:51:37.434Z,46.30
2018-06-15T13:54:06.229Z,44.60
2018-06-15T13:56:36.447Z,44.50
2018-06-15T13:59:05.929Z,43.40
2018-06-15T14:01:35.404Z,43.30
2018-06-15T14:04:04.211Z,42.00
2018-06-15T14:06:32.975Z,41.50
2018-06-15T14:11:30.546Z,42.10
2018-06-15T14:16:28.820Z,41.90
2018-06-15T14:18:57.619Z,41.90
2018-06-15T14:21:26.749Z,41.70
2018-06-15T14:23:56.156Z,41.80
2018-06-15T14:26:25.382Z,42.00
2018-06-15T14:28:55.255Z,42.30
2018-06-15T14:31:24.978Z,42.30
2018-06-15T14:33:53.932Z,42.80
2018-06-15T14:36:23.632Z,43.10
2018-06-15T14:38:52.430Z,43.10
2018-06-15T14:41:21.240Z,43.30
2018-06-15T14:43:50.117Z,43.40
2018-06-15T14:46:20.671Z,43.50
2018-06-15T14:51:19.662Z,42.70
2018-06-15T14:56:17.664Z,42.20
2018-06-15T14:58:46.605Z,42.00
2018-06-15T15:01:16.436Z,40.90
2018-06-15T15:03:45.890Z,41.40
2018-06-15T15:06:16.642Z,41.20
2018-06-15T15:08:47.589Z,41.30
2018-06-15T15:11:16.660Z,41.90
2018-06-15T15:13:46.155Z,41.80
2018-06-15T15:16:15.046Z,42.00
2018-06-15T15:18:43.734Z,42.20
2018-06-15T15:21:12.670Z,41.40
2018-06-15T15:23:41.515Z,41.30
2018-06-15T15:26:11.292Z,41.50
2018-06-15T15:28:40.196Z,42.00
2018-06-15T15:31:09.128Z,42.20
2018-06-15T15:33:38.005Z,42.10
2018-06-15T15:36:06.825Z,41.90
2018-06-15T15:38:35.756Z,41.80
2018-06-15T15:41:04.485Z,41.50
2018-06-15T15:43:34.633Z,41.30
2018-06-15T15:46:04.358Z,40.90
2018-06-15T15:48:34.630Z,41.10
2018-06-15T15:51:04.260Z,40.80
2018-06-15T15:53:33.978Z,41.40
2018-06-15T15:56:02.828Z,42.10
2018-06-15T16:01:00.205Z,42.60
2018-06-15T16:05:59.535Z,42.80
2018-06-15T16:08:29.248Z,43.50
2018-06-15T16:11:00.365Z,43.20
2018-06-15T16:13:29.658Z,43.80
2018-06-15T16:15:58.751Z,43.80
2018-06-15T16:18:27.845Z,43.80
2018-06-15T16:21:01.606Z,44.00
2018-06-15T16:23:31.249Z,44.10
2018-06-15T16:26:01.660Z,44.00
2018-06-15T16:28:30.752Z,43.80
2018-06-15T16:30:59.716Z,43.70
2018-06-15T16:33:28.653Z,43.90
2018-06-15T16:35:58.860Z,43.50
2018-06-15T16:38:28.617Z,42.90
2018-06-15T16:40:58.260Z,42.80
2018-06-15T16:43:27.230Z,43.00
2018-06-15T16:45:56.846Z,43.00
2018-06-15T16:48:26.833Z,42.50
2018-06-15T16:50:56.635Z,42.80
2018-06-15T16:53:26.576Z,42.80
2018-06-15T16:55:56.521Z,43.20
2018-06-15T16:58:26.125Z,44.20
2018-06-15T17:00:55.035Z,43.70
2018-06-15T17:03:25.005Z,43.40
2018-06-15T17:05:53.835Z,44.30
2018-06-15T17:08:22.545Z,44.20
2018-06-15T17:10:51.495Z,43.50
2018-06-15T17:13:21.031Z,43.40
2018-06-15T17:15:54.522Z,43.60
2018-06-15T17:18:24.807Z,43.40
2018-06-15T17:20:59.342Z,43.50
2018-06-15T17:23:28.761Z,43.50
2018-06-15T17:25:57.533Z,43.60
2018-06-15T17:28:26.416Z,43.60
2018-06-15T17:30:55.808Z,43.60
2018-06-15T17:33:24.675Z,43.20
2018-06-15T17:35:54.089Z,43.10
2018-06-15T17:38:25.446Z,42.70
2018-06-15T17:40:54.636Z,43.50
2018-06-15T17:43:23.878Z,43.10
2018-06-15T17:45:52.904Z,43.30
2018-06-15T17:48:22.151Z,43.30
2018-06-15T17:50:51.202Z,43.30
2018-06-15T17:53:21.022Z,43.40
2018-06-15T17:55:50.374Z,43.40
2018-06-15T17:58:19.869Z,43.60
2018-06-15T18:00:48.756Z,43.80
2018-06-15T18:03:17.668Z,43.90
2018-06-15T18:05:46.796Z,44.10
2018-06-15T18:08:18.177Z,44.20
2018-06-15T18:10:48.604Z,44.50
2018-06-15T18:13:17.781Z,45.30
2018-06-15T18:15:47.051Z,44.90
2018-06-15T18:18:15.988Z,45.10
2018-06-15T18:20:49.616Z,45.20
2018-06-15T18:23:18.781Z,45.20
2018-06-15T18:25:48.554Z,45.10
2018-06-15T18:28:18.296Z,45.50
2018-06-15T18:30:47.777Z,45.60
2018-06-15T18:33:16.749Z,45.70
2018-06-15T18:35:46.204Z,45.80
2018-06-15T18:38:15.314Z,46.00
2018-06-15T18:40:48.170Z,46.50
2018-06-15T18:43:18.795Z,46.80
2018-06-15T18:45:49.645Z,47.40
2018-06-15T18:48:19.325Z,48.10
2018-06-15T18:53:16.832Z,48.60
2018-06-15T18:55:46.141Z,48.60
2018-06-15T18:58:19.596Z,48.90
2018-06-15T19:00:49.234Z,49.00
2018-06-15T19:03:18.086Z,49.10
2018-06-15T19:05:46.907Z,49.00
2018-06-15T19:08:16.648Z,49.20
2018-06-15T19:10:45.591Z,49.00
2018-06-15T19:13:14.591Z,49.00
2018-06-15T19:15:43.596Z,49.10
2018-06-15T19:18:18.612Z,48.90
2018-06-15T19:20:49.404Z,49.00
2018-06-15T19:23:18.370Z,49.20
2018-06-15T19:25:47.785Z,49.10
2018-06-15T19:28:17.180Z,49.30
2018-06-15T19:30:47.620Z,49.50
2018-06-15T19:33:18.306Z,49.40
2018-06-15T19:38:20.415Z,49.40
2018-06-15T19:40:56.664Z,49.40
2018-06-15T19:43:25.808Z,49.40
2018-06-15T19:45:59.340Z,49.40
2018-06-15T19:48:31.105Z,49.30
2018-06-15T19:51:07.120Z,49.50
2018-06-15T19:53:38.233Z,49.50
2018-06-15T19:56:08.001Z,49.50
2018-06-15T19:58:40.741Z,49.50
2018-06-15T20:01:10.698Z,49.50
2018-06-15T20:03:39.818Z,49.30
2018-06-15T20:06:08.814Z,49.20
2018-06-15T20:11:06.623Z,49.70
2018-06-15T20:13:44.063Z,49.60
2018-06-15T20:16:13.184Z,49.50
2018-06-15T20:18:42.764Z,49.50
2018-06-15T20:21:11.742Z,49.50
2018-06-15T20:23:41.972Z,49.60
2018-06-15T20:26:10.832Z,49.50
2018-06-15T20:28:39.701Z,49.50
2018-06-15T20:31:08.763Z,49.00
2018-06-15T20:33:37.977Z,49.10
2018-06-15T20:38:36.206Z,49.00
2018-06-15T20:41:09.094Z,49.10
2018-06-15T20:43:38.733Z,49.00
2018-06-15T20:46:07.879Z,49.20
2018-06-15T20:48:41.109Z,49.30
2018-06-15T20:51:10.974Z,50.00
2018-06-15T20:53:40.016Z,49.40
2018-06-15T20:56:09.253Z,49.40
2018-06-15T20:58:38.659Z,49.60
2018-06-15T21:01:07.564Z,49.90
2018-06-15T21:06:05.796Z,49.70
2018-06-15T21:08:35.008Z,49.60
2018-06-15T21:11:04.086Z,49.50
2018-06-15T21:13:33.183Z,49.50
2018-06-15T21:16:03.140Z,49.60
2018-06-15T21:18:33.532Z,49.50
2018-06-15T21:21:02.568Z,49.30
2018-06-15T21:23:31.438Z,49.20
2018-06-15T21:26:01.121Z,49.20
2018-06-15T21:28:29.949Z,49.30
2018-06-15T21:30:58.762Z,49.50
2018-06-15T21:33:28.047Z,49.40
2018-06-15T21:35:57.964Z,49.30
2018-06-15T21:38:26.744Z,49.50
2018-06-15T21:40:55.726Z,49.50
2018-06-15T21:43:24.775Z,49.80
2018-06-15T21:45:54.005Z,50.00
2018-06-15T21:48:23.178Z,50.00
2018-06-15T21:50:52.323Z,50.10
2018-06-15T21:53:22.248Z,50.10
2018-06-15T21:55:51.569Z,50.40
2018-06-15T22:00:50.897Z,50.30
2018-06-15T22:03:20.070Z,50.50
2018-06-15T22:05:49.657Z,50.40
2018-06-15T22:08:19.363Z,50.60
2018-06-15T22:10:48.920Z,50.60
2018-06-15T22:13:18.792Z,50.60
2018-06-15T22:15:47.756Z,50.60
2018-06-15T22:18:16.502Z,50.70
2018-06-15T22:20:45.808Z,50.70
2018-06-15T22:23:14.606Z,50.80
2018-06-15T22:25:43.548Z,50.70
2018-06-15T22:28:12.403Z,50.80
2018-06-15T22:30:42.776Z,50.80
2018-06-15T22:33:12.078Z,50.70
2018-06-15T22:35:42.231Z,50.70
2018-06-15T22:40:40.262Z,50.50
2018-06-15T22:43:09.239Z,50.60
2018-06-15T22:45:38.229Z,50.60
2018-06-15T22:48:08.110Z,50.70
2018-06-15T22:50:36.913Z,50.70
2018-06-15T22:55:35.050Z,51.00
2018-06-15T22:58:05.070Z,51.00
2018-06-15T23:00:34.961Z,51.10
2018-06-15T23:03:04.500Z,51.20
2018-06-15T23:05:33.703Z,51.10
2018-06-15T23:08:02.466Z,51.10
2018-06-15T23:10:31.706Z,51.20
2018-06-15T23:13:00.725Z,51.30
2018-06-15T23:15:30.424Z,51.30
2018-06-15T23:17:59.236Z,51.30
2018-06-15T23:20:27.990Z,51.10
2018-06-15T23:22:57.948Z,51.30
2018-06-15T23:25:27.690Z,51.20
2018-06-15T23:27:57.246Z,51.40
2018-06-15T23:30:26.588Z,51.30
2018-06-15T23:32:57.198Z,51.40
2018-06-15T23:35:30.321Z,51.40
2018-06-15T23:37:59.151Z,51.40
2018-06-15T23:40:29.026Z,51.50
2018-06-15T23:42:57.780Z,51.80
2018-06-15T23:45:26.636Z,51.90
2018-06-15T23:47:56.410Z,51.90
2018-06-15T23:50:26.339Z,51.90
2018-06-15T23:52:55.083Z,52.10
2018-06-15T23:55:23.972Z,52.00
2018-06-15T23:57:53.259Z,52.20
